Terminal Aerodrome Forecast
Issued by NWS Twin Cities, MN

Home | Current Version | Previous Version | Graphics & Text | Print | Product List | Glossary On
Versions: 1 2 3 4 5 6 7 8 9 10 11 12 13 14 15 16 17 18
989
FTUS43 KMPX 081739
TAFEAU
TAF
KEAU 081739Z 0818/0918 32014G22KT 5SM -SN BLSN SCT025 BKN040
      TEMPO 0818/0822 1 1/2SM -SN BLSN BKN020
     FM082200 32014G22KT 5SM -SN BLSN BKN025
     FM091200 32014G22KT 6SM BLSN BKN025=

USA.gov is the U.S. government's official web portal to all federal, state and local government web resources and services.